sensor_id;sensor_type;location;lat;lon;timestamp;P1;durP1;ratioP1;P2;durP2;ratioP2
21060;SDS011;10689;50.836;3.266;2023-03-19T00:00:18;3.83;;;3.10;;
21060;SDS011;10689;50.836;3.266;2023-03-19T00:02:45;4.70;;;3.50;;
21060;SDS011;10689;50.836;3.266;2023-03-19T00:05:16;6.80;;;3.50;;
21060;SDS011;10689;50.836;3.266;2023-03-19T00:07:45;4.60;;;3.30;;
21060;SDS011;10689;50.836;3.266;2023-03-19T00:10:17;5.03;;;3.27;;
21060;SDS011;10689;50.836;3.266;2023-03-19T00:12:43;3.20;;;2.90;;
21060;SDS011;10689;50.836;3.266;2023-03-19T00:15:29;4.60;;;3.72;;
21060;SDS011;10689;50.836;3.266;2023-03-19T00:17:55;4.20;;;3.13;;
21060;SDS011;10689;50.836;3.266;2023-03-19T00:20:38;4.70;;;3.70;;
21060;SDS011;10689;50.836;3.266;2023-03-19T00:23:05;4.63;;;3.53;;
21060;SDS011;10689;50.836;3.266;2023-03-19T00:25:31;4.17;;;3.77;;
21060;SDS011;10689;50.836;3.266;2023-03-19T00:28:00;5.43;;;3.90;;
21060;SDS011;10689;50.836;3.266;2023-03-19T00:30:32;5.03;;;3.70;;
21060;SDS011;10689;50.836;3.266;2023-03-19T00:33:02;5.00;;;3.67;;
21060;SDS011;10689;50.836;3.266;2023-03-19T00:35:28;5.70;;;3.73;;
21060;SDS011;10689;50.836;3.266;2023-03-19T00:37:54;4.63;;;3.20;;
21060;SDS011;10689;50.836;3.266;2023-03-19T00:40:20;3.77;;;3.30;;
21060;SDS011;10689;50.836;3.266;2023-03-19T00:42:46;4.67;;;3.60;;
21060;SDS011;10689;50.836;3.266;2023-03-19T00:45:15;4.63;;;3.67;;
21060;SDS011;10689;50.836;3.266;2023-03-19T00:47:41;3.87;;;3.10;;
21060;SDS011;10689;50.836;3.266;2023-03-19T00:50:08;5.97;;;4.00;;
21060;SDS011;10689;50.836;3.266;2023-03-19T00:52:34;6.50;;;3.73;;
21060;SDS011;10689;50.836;3.266;2023-03-19T00:55:00;5.33;;;3.53;;
21060;SDS011;10689;50.836;3.266;2023-03-19T00:57:26;4.80;;;4.27;;
21060;SDS011;10689;50.836;3.266;2023-03-19T00:59:53;5.00;;;3.70;;
21060;SDS011;10689;50.836;3.266;2023-03-19T01:02:19;4.73;;;3.27;;
21060;SDS011;10689;50.836;3.266;2023-03-19T01:04:46;4.43;;;3.37;;
21060;SDS011;10689;50.836;3.266;2023-03-19T01:07:16;6.60;;;4.05;;
21060;SDS011;10689;50.836;3.266;2023-03-19T01:09:42;6.50;;;3.73;;
21060;SDS011;10689;50.836;3.266;2023-03-19T01:12:09;5.90;;;3.87;;
21060;SDS011;10689;50.836;3.266;2023-03-19T01:14:35;4.80;;;3.40;;
21060;SDS011;10689;50.836;3.266;2023-03-19T01:17:01;6.57;;;3.77;;
21060;SDS011;10689;50.836;3.266;2023-03-19T01:19:32;5.27;;;3.97;;
21060;SDS011;10689;50.836;3.266;2023-03-19T01:21:59;5.67;;;3.47;;
21060;SDS011;10689;50.836;3.266;2023-03-19T01:24:28;3.93;;;3.23;;
21060;SDS011;10689;50.836;3.266;2023-03-19T01:26:54;4.10;;;3.70;;
21060;SDS011;10689;50.836;3.266;2023-03-19T01:29:20;4.33;;;3.30;;
21060;SDS011;10689;50.836;3.266;2023-03-19T01:31:46;4.73;;;3.10;;
21060;SDS011;10689;50.836;3.266;2023-03-19T01:34:13;5.50;;;3.90;;
21060;SDS011;10689;50.836;3.266;2023-03-19T01:36:39;7.70;;;3.30;;
21060;SDS011;10689;50.836;3.266;2023-03-19T01:39:05;4.93;;;3.43;;
21060;SDS011;10689;50.836;3.266;2023-03-19T01:41:32;3.40;;;2.70;;
21060;SDS011;10689;50.836;3.266;2023-03-19T01:43:58;3.27;;;2.63;;
21060;SDS011;10689;50.836;3.266;2023-03-19T01:46:31;6.23;;;2.90;;
21060;SDS011;10689;50.836;3.266;2023-03-19T01:49:05;4.77;;;3.23;;
21060;SDS011;10689;50.836;3.266;2023-03-19T01:51:34;4.60;;;2.77;;
21060;SDS011;10689;50.836;3.266;2023-03-19T01:54:08;6.80;;;3.33;;
21060;SDS011;10689;50.836;3.266;2023-03-19T01:56:42;7.33;;;3.13;;
21060;SDS011;10689;50.836;3.266;2023-03-19T01:59:15;5.97;;;3.53;;
21060;SDS011;10689;50.836;3.266;2023-03-19T02:01:57;7.40;;;3.80;;
21060;SDS011;10689;50.836;3.266;2023-03-19T02:04:47;6.10;;;3.70;;
21060;SDS011;10689;50.836;3.266;2023-03-19T02:07:17;8.73;;;3.93;;
21060;SDS011;10689;50.836;3.266;2023-03-19T02:09:46;7.67;;;4.03;;
21060;SDS011;10689;50.836;3.266;2023-03-19T02:12:12;5.50;;;3.43;;
21060;SDS011;10689;50.836;3.266;2023-03-19T02:14:48;4.90;;;3.00;;
21060;SDS011;10689;50.836;3.266;2023-03-19T02:17:18;8.63;;;3.17;;
21060;SDS011;10689;50.836;3.266;2023-03-19T02:22:35;6.13;;;3.03;;
21060;SDS011;10689;50.836;3.266;2023-03-19T02:25:16;5.87;;;3.40;;
21060;SDS011;10689;50.836;3.266;2023-03-19T02:27:47;3.90;;;3.03;;
21060;SDS011;10689;50.836;3.266;2023-03-19T02:30:20;4.53;;;3.10;;
21060;SDS011;10689;50.836;3.266;2023-03-19T02:32:51;7.67;;;2.97;;
21060;SDS011;10689;50.836;3.266;2023-03-19T02:35:20;4.70;;;3.27;;
21060;SDS011;10689;50.836;3.266;2023-03-19T02:37:49;4.17;;;3.00;;
21060;SDS011;10689;50.836;3.266;2023-03-19T02:40:23;4.07;;;2.97;;
21060;SDS011;10689;50.836;3.266;2023-03-19T02:43:18;4.37;;;3.03;;
21060;SDS011;10689;50.836;3.266;2023-03-19T02:45:45;5.60;;;2.77;;
21060;SDS011;10689;50.836;3.266;2023-03-19T02:48:11;3.33;;;2.77;;
21060;SDS011;10689;50.836;3.266;2023-03-19T02:50:37;6.80;;;3.03;;
21060;SDS011;10689;50.836;3.266;2023-03-19T02:53:04;4.30;;;2.73;;
21060;SDS011;10689;50.836;3.266;2023-03-19T02:55:32;5.03;;;3.23;;
21060;SDS011;10689;50.836;3.266;2023-03-19T02:58:03;6.37;;;3.43;;
21060;SDS011;10689;50.836;3.266;2023-03-19T03:00:32;6.73;;;3.30;;
21060;SDS011;10689;50.836;3.266;2023-03-19T03:03:01;3.20;;;2.87;;
21060;SDS011;10689;50.836;3.266;2023-03-19T03:05:32;6.43;;;2.93;;
21060;SDS011;10689;50.836;3.266;2023-03-19T03:08:01;12.93;;;3.10;;
21060;SDS011;10689;50.836;3.266;2023-03-19T03:10:31;6.10;;;2.80;;
21060;SDS011;10689;50.836;3.266;2023-03-19T03:12:57;4.53;;;2.50;;
21060;SDS011;10689;50.836;3.266;2023-03-19T03:15:31;4.97;;;3.07;;
21060;SDS011;10689;50.836;3.266;2023-03-19T03:18:18;6.10;;;2.90;;
21060;SDS011;10689;50.836;3.266;2023-03-19T03:20:52;6.60;;;3.30;;
21060;SDS011;10689;50.836;3.266;2023-03-19T03:23:18;4.40;;;2.73;;
21060;SDS011;10689;50.836;3.266;2023-03-19T03:25:49;9.30;;;3.20;;
21060;SDS011;10689;50.836;3.266;2023-03-19T03:28:19;7.53;;;2.47;;
21060;SDS011;10689;50.836;3.266;2023-03-19T03:30:45;3.97;;;2.13;;
21060;SDS011;10689;50.836;3.266;2023-03-19T03:33:15;4.03;;;2.33;;
21060;SDS011;10689;50.836;3.266;2023-03-19T03:35:41;4.97;;;2.30;;
21060;SDS011;10689;50.836;3.266;2023-03-19T03:38:10;3.27;;;2.23;;
21060;SDS011;10689;50.836;3.266;2023-03-19T03:40:42;5.00;;;3.00;;
21060;SDS011;10689;50.836;3.266;2023-03-19T03:43:08;5.47;;;2.30;;
21060;SDS011;10689;50.836;3.266;2023-03-19T03:45:34;6.90;;;2.40;;
21060;SDS011;10689;50.836;3.266;2023-03-19T03:48:01;4.90;;;2.30;;
21060;SDS011;10689;50.836;3.266;2023-03-19T03:50:30;5.47;;;2.20;;
21060;SDS011;10689;50.836;3.266;2023-03-19T03:52:55;13.13;;;2.57;;
21060;SDS011;10689;50.836;3.266;2023-03-19T03:55:21;9.37;;;2.03;;
21060;SDS011;10689;50.836;3.266;2023-03-19T03:57:47;7.37;;;2.20;;
21060;SDS011;10689;50.836;3.266;2023-03-19T04:00:13;7.83;;;2.07;;
21060;SDS011;10689;50.836;3.266;2023-03-19T04:02:42;5.17;;;2.33;;
21060;SDS011;10689;50.836;3.266;2023-03-19T04:05:11;7.03;;;2.87;;
21060;SDS011;10689;50.836;3.266;2023-03-19T04:07:37;7.33;;;2.53;;
21060;SDS011;10689;50.836;3.266;2023-03-19T04:10:06;6.50;;;2.37;;
21060;SDS011;10689;50.836;3.266;2023-03-19T04:12:47;5.33;;;2.60;;
21060;SDS011;10689;50.836;3.266;2023-03-19T04:15:19;10.87;;;3.17;;
21060;SDS011;10689;50.836;3.266;2023-03-19T04:17:47;8.43;;;2.77;;
21060;SDS011;10689;50.836;3.266;2023-03-19T04:20:19;6.87;;;2.57;;
21060;SDS011;10689;50.836;3.266;2023-03-19T04:22:46;4.03;;;2.27;;
21060;SDS011;10689;50.836;3.266;2023-03-19T04:25:15;12.00;;;3.10;;
21060;SDS011;10689;50.836;3.266;2023-03-19T04:27:48;10.97;;;3.13;;
21060;SDS011;10689;50.836;3.266;2023-03-19T04:30:13;3.73;;;2.07;;
21060;SDS011;10689;50.836;3.266;2023-03-19T04:32:40;5.83;;;3.50;;
21060;SDS011;10689;50.836;3.266;2023-03-19T04:35:11;12.27;;;3.37;;
21060;SDS011;10689;50.836;3.266;2023-03-19T04:37:47;8.00;;;2.60;;
21060;SDS011;10689;50.836;3.266;2023-03-19T04:40:14;10.70;;;3.00;;
21060;SDS011;10689;50.836;3.266;2023-03-19T04:42:49;10.40;;;2.67;;
21060;SDS011;10689;50.836;3.266;2023-03-19T04:45:28;14.23;;;3.17;;
21060;SDS011;10689;50.836;3.266;2023-03-19T04:47:56;7.80;;;3.20;;
21060;SDS011;10689;50.836;3.266;2023-03-19T04:50:22;11.07;;;3.23;;
21060;SDS011;10689;50.836;3.266;2023-03-19T04:52:48;7.07;;;2.80;;
21060;SDS011;10689;50.836;3.266;2023-03-19T04:55:14;5.23;;;3.30;;
21060;SDS011;10689;50.836;3.266;2023-03-19T04:57:46;7.23;;;3.33;;
21060;SDS011;10689;50.836;3.266;2023-03-19T05:00:27;6.63;;;3.10;;
21060;SDS011;10689;50.836;3.266;2023-03-19T05:03:00;8.03;;;4.17;;
21060;SDS011;10689;50.836;3.266;2023-03-19T05:05:29;4.80;;;3.70;;
21060;SDS011;10689;50.836;3.266;2023-03-19T05:07:55;10.35;;;4.00;;
21060;SDS011;10689;50.836;3.266;2023-03-19T05:10:25;7.93;;;3.63;;
21060;SDS011;10689;50.836;3.266;2023-03-19T05:12:54;9.00;;;3.90;;
21060;SDS011;10689;50.836;3.266;2023-03-19T05:15:20;8.53;;;4.50;;
21060;SDS011;10689;50.836;3.266;2023-03-19T05:17:46;9.50;;;4.60;;
21060;SDS011;10689;50.836;3.266;2023-03-19T05:20:15;12.87;;;5.93;;
21060;SDS011;10689;50.836;3.266;2023-03-19T05:22:42;8.73;;;4.77;;
21060;SDS011;10689;50.836;3.266;2023-03-19T05:25:08;13.10;;;5.77;;
21060;SDS011;10689;50.836;3.266;2023-03-19T05:27:37;10.97;;;5.10;;
21060;SDS011;10689;50.836;3.266;2023-03-19T05:30:04;14.73;;;5.83;;
21060;SDS011;10689;50.836;3.266;2023-03-19T05:32:34;11.80;;;5.03;;
21060;SDS011;10689;50.836;3.266;2023-03-19T05:35:04;9.50;;;5.00;;
21060;SDS011;10689;50.836;3.266;2023-03-19T05:37:37;9.17;;;5.63;;
21060;SDS011;10689;50.836;3.266;2023-03-19T05:40:06;9.13;;;5.77;;
21060;SDS011;10689;50.836;3.266;2023-03-19T05:42:35;15.00;;;6.20;;
21060;SDS011;10689;50.836;3.266;2023-03-19T05:45:01;15.43;;;7.37;;
21060;SDS011;10689;50.836;3.266;2023-03-19T05:47:33;15.15;;;7.47;;
21060;SDS011;10689;50.836;3.266;2023-03-19T05:50:00;13.10;;;6.57;;
21060;SDS011;10689;50.836;3.266;2023-03-19T05:52:26;17.50;;;7.13;;
21060;SDS011;10689;50.836;3.266;2023-03-19T05:54:52;16.40;;;6.60;;
21060;SDS011;10689;50.836;3.266;2023-03-19T05:57:20;11.43;;;5.80;;
21060;SDS011;10689;50.836;3.266;2023-03-19T05:59:52;13.33;;;6.53;;
21060;SDS011;10689;50.836;3.266;2023-03-19T06:02:18;11.97;;;5.53;;
21060;SDS011;10689;50.836;3.266;2023-03-19T06:04:47;15.60;;;6.18;;
21060;SDS011;10689;50.836;3.266;2023-03-19T06:07:13;13.27;;;5.75;;
21060;SDS011;10689;50.836;3.266;2023-03-19T06:09:38;10.20;;;5.57;;
21060;SDS011;10689;50.836;3.266;2023-03-19T06:12:05;7.28;;;5.20;;
21060;SDS011;10689;50.836;3.266;2023-03-19T06:14:40;11.57;;;6.13;;
21060;SDS011;10689;50.836;3.266;2023-03-19T06:17:07;12.77;;;5.43;;
21060;SDS011;10689;50.836;3.266;2023-03-19T06:19:35;14.45;;;7.47;;
21060;SDS011;10689;50.836;3.266;2023-03-19T06:22:02;14.32;;;6.72;;
21060;SDS011;10689;50.836;3.266;2023-03-19T06:24:34;9.30;;;6.20;;
21060;SDS011;10689;50.836;3.266;2023-03-19T06:27:03;19.47;;;7.30;;
21060;SDS011;10689;50.836;3.266;2023-03-19T06:29:29;12.38;;;7.57;;
21060;SDS011;10689;50.836;3.266;2023-03-19T06:31:58;11.20;;;7.28;;
21060;SDS011;10689;50.836;3.266;2023-03-19T06:34:24;11.32;;;6.63;;
21060;SDS011;10689;50.836;3.266;2023-03-19T06:36:50;13.25;;;7.60;;
21060;SDS011;10689;50.836;3.266;2023-03-19T06:39:17;13.98;;;6.38;;
21060;SDS011;10689;50.836;3.266;2023-03-19T06:41:44;13.40;;;6.18;;
21060;SDS011;10689;50.836;3.266;2023-03-19T06:44:09;10.15;;;5.40;;
21060;SDS011;10689;50.836;3.266;2023-03-19T06:46:35;13.13;;;7.70;;
21060;SDS011;10689;50.836;3.266;2023-03-19T06:49:01;16.08;;;6.93;;
21060;SDS011;10689;50.836;3.266;2023-03-19T06:51:27;8.50;;;5.88;;
21060;SDS011;10689;50.836;3.266;2023-03-19T06:53:53;13.02;;;6.43;;
21060;SDS011;10689;50.836;3.266;2023-03-19T06:56:20;10.88;;;6.20;;
21060;SDS011;10689;50.836;3.266;2023-03-19T06:58:46;12.57;;;6.20;;
21060;SDS011;10689;50.836;3.266;2023-03-19T07:01:13;10.52;;;5.53;;
21060;SDS011;10689;50.836;3.266;2023-03-19T07:03:38;12.23;;;5.68;;
21060;SDS011;10689;50.836;3.266;2023-03-19T07:06:04;11.15;;;7.03;;
21060;SDS011;10689;50.836;3.266;2023-03-19T07:08:31;10.60;;;5.80;;
21060;SDS011;10689;50.836;3.266;2023-03-19T07:11:02;12.27;;;6.63;;
21060;SDS011;10689;50.836;3.266;2023-03-19T07:13:31;11.80;;;6.18;;
21060;SDS011;10689;50.836;3.266;2023-03-19T07:15:58;10.32;;;5.47;;
21060;SDS011;10689;50.836;3.266;2023-03-19T07:18:25;16.80;;;6.60;;
21060;SDS011;10689;50.836;3.266;2023-03-19T07:20:51;10.65;;;5.70;;
21060;SDS011;10689;50.836;3.266;2023-03-19T07:23:20;12.07;;;6.13;;
21060;SDS011;10689;50.836;3.266;2023-03-19T07:25:46;12.68;;;5.95;;
21060;SDS011;10689;50.836;3.266;2023-03-19T07:28:12;13.75;;;6.03;;
21060;SDS011;10689;50.836;3.266;2023-03-19T07:30:38;12.95;;;6.97;;
21060;SDS011;10689;50.836;3.266;2023-03-19T07:33:07;8.07;;;5.40;;
21060;SDS011;10689;50.836;3.266;2023-03-19T07:35:33;11.80;;;6.30;;
21060;SDS011;10689;50.836;3.266;2023-03-19T07:37:59;9.70;;;5.93;;
21060;SDS011;10689;50.836;3.266;2023-03-19T07:40:26;8.63;;;5.38;;
21060;SDS011;10689;50.836;3.266;2023-03-19T07:42:53;15.50;;;7.10;;
21060;SDS011;10689;50.836;3.266;2023-03-19T07:45:18;9.48;;;5.45;;
21060;SDS011;10689;50.836;3.266;2023-03-19T07:47:45;11.10;;;6.38;;
21060;SDS011;10689;50.836;3.266;2023-03-19T07:50:11;10.50;;;6.43;;
21060;SDS011;10689;50.836;3.266;2023-03-19T07:52:37;12.23;;;6.30;;
21060;SDS011;10689;50.836;3.266;2023-03-19T07:55:03;9.43;;;6.35;;
21060;SDS011;10689;50.836;3.266;2023-03-19T07:57:29;10.45;;;6.65;;
21060;SDS011;10689;50.836;3.266;2023-03-19T07:59:56;12.50;;;6.25;;
21060;SDS011;10689;50.836;3.266;2023-03-19T08:02:23;12.05;;;6.15;;
21060;SDS011;10689;50.836;3.266;2023-03-19T08:04:49;10.13;;;5.88;;
21060;SDS011;10689;50.836;3.266;2023-03-19T08:07:17;8.30;;;5.60;;
21060;SDS011;10689;50.836;3.266;2023-03-19T08:09:43;9.18;;;6.18;;
21060;SDS011;10689;50.836;3.266;2023-03-19T08:12:08;11.70;;;6.05;;
21060;SDS011;10689;50.836;3.266;2023-03-19T08:14:34;13.07;;;6.10;;
21060;SDS011;10689;50.836;3.266;2023-03-19T08:17:00;8.27;;;5.97;;
21060;SDS011;10689;50.836;3.266;2023-03-19T08:19:26;8.93;;;5.75;;
21060;SDS011;10689;50.836;3.266;2023-03-19T08:21:52;10.68;;;5.50;;
21060;SDS011;10689;50.836;3.266;2023-03-19T08:24:17;10.63;;;5.85;;
21060;SDS011;10689;50.836;3.266;2023-03-19T08:26:44;11.43;;;6.07;;
21060;SDS011;10689;50.836;3.266;2023-03-19T08:29:10;11.43;;;6.20;;
21060;SDS011;10689;50.836;3.266;2023-03-19T08:31:36;9.90;;;6.43;;
21060;SDS011;10689;50.836;3.266;2023-03-19T08:34:02;12.57;;;5.90;;
21060;SDS011;10689;50.836;3.266;2023-03-19T08:36:29;12.63;;;6.65;;
21060;SDS011;10689;50.836;3.266;2023-03-19T08:38:56;9.50;;;6.15;;
21060;SDS011;10689;50.836;3.266;2023-03-19T08:41:23;16.60;;;7.25;;
21060;SDS011;10689;50.836;3.266;2023-03-19T08:43:49;10.77;;;6.63;;
21060;SDS011;10689;50.836;3.266;2023-03-19T08:46:16;11.73;;;6.63;;
21060;SDS011;10689;50.836;3.266;2023-03-19T08:48:42;10.25;;;6.22;;
21060;SDS011;10689;50.836;3.266;2023-03-19T08:51:09;17.38;;;7.28;;
21060;SDS011;10689;50.836;3.266;2023-03-19T08:53:35;13.02;;;6.88;;
21060;SDS011;10689;50.836;3.266;2023-03-19T08:56:03;9.55;;;6.13;;
21060;SDS011;10689;50.836;3.266;2023-03-19T08:58:31;13.82;;;6.18;;
21060;SDS011;10689;50.836;3.266;2023-03-19T09:01:08;7.90;;;5.40;;
21060;SDS011;10689;50.836;3.266;2023-03-19T09:03:36;7.30;;;4.80;;
21060;SDS011;10689;50.836;3.266;2023-03-19T09:06:03;4.47;;;3.77;;
21060;SDS011;10689;50.836;3.266;2023-03-19T09:08:32;4.17;;;3.17;;
21060;SDS011;10689;50.836;3.266;2023-03-19T09:10:58;6.00;;;2.90;;
21060;SDS011;10689;50.836;3.266;2023-03-19T09:13:24;4.80;;;2.20;;
21060;SDS011;10689;50.836;3.266;2023-03-19T09:15:50;2.63;;;2.33;;
21060;SDS011;10689;50.836;3.266;2023-03-19T09:18:16;6.47;;;2.40;;
21060;SDS011;10689;50.836;3.266;2023-03-19T09:20:44;5.27;;;2.47;;
21060;SDS011;10689;50.836;3.266;2023-03-19T09:23:11;5.73;;;2.30;;
21060;SDS011;10689;50.836;3.266;2023-03-19T09:25:37;2.70;;;2.20;;
21060;SDS011;10689;50.836;3.266;2023-03-19T09:28:03;2.30;;;1.97;;
21060;SDS011;10689;50.836;3.266;2023-03-19T09:30:29;2.33;;;2.00;;
21060;SDS011;10689;50.836;3.266;2023-03-19T09:32:55;2.97;;;2.20;;
21060;SDS011;10689;50.836;3.266;2023-03-19T09:35:21;2.80;;;2.50;;
21060;SDS011;10689;50.836;3.266;2023-03-19T09:37:47;2.90;;;2.10;;
21060;SDS011;10689;50.836;3.266;2023-03-19T09:40:21;3.10;;;2.50;;
21060;SDS011;10689;50.836;3.266;2023-03-19T09:45:41;3.70;;;2.73;;
21060;SDS011;10689;50.836;3.266;2023-03-19T09:48:10;3.57;;;2.83;;
21060;SDS011;10689;50.836;3.266;2023-03-19T09:50:42;3.07;;;2.40;;
21060;SDS011;10689;50.836;3.266;2023-03-19T09:55:49;4.63;;;2.23;;
21060;SDS011;10689;50.836;3.266;2023-03-19T09:58:19;3.43;;;2.97;;
21060;SDS011;10689;50.836;3.266;2023-03-19T10:00:49;3.67;;;2.53;;
21060;SDS011;10689;50.836;3.266;2023-03-19T10:13:51;3.50;;;2.60;;
21060;SDS011;10689;50.836;3.266;2023-03-19T10:16:36;3.53;;;2.58;;
21060;SDS011;10689;50.836;3.266;2023-03-19T10:19:05;4.90;;;2.95;;
21060;SDS011;10689;50.836;3.266;2023-03-19T10:21:37;3.88;;;2.97;;
21060;SDS011;10689;50.836;3.266;2023-03-19T10:24:09;6.60;;;3.30;;
21060;SDS011;10689;50.836;3.266;2023-03-19T10:26:41;8.68;;;6.03;;
21060;SDS011;10689;50.836;3.266;2023-03-19T10:29:18;11.17;;;7.17;;
21060;SDS011;10689;50.836;3.266;2023-03-19T10:34:50;11.93;;;8.15;;
21060;SDS011;10689;50.836;3.266;2023-03-19T10:37:23;8.20;;;5.03;;
21060;SDS011;10689;50.836;3.266;2023-03-19T10:39:56;7.03;;;5.75;;
21060;SDS011;10689;50.836;3.266;2023-03-19T10:45:24;9.65;;;5.15;;
21060;SDS011;10689;50.836;3.266;2023-03-19T10:47:59;8.15;;;5.35;;
21060;SDS011;10689;50.836;3.266;2023-03-19T10:50:36;4.35;;;3.38;;
21060;SDS011;10689;50.836;3.266;2023-03-19T10:58:34;5.60;;;3.65;;
21060;SDS011;10689;50.836;3.266;2023-03-19T11:01:11;5.47;;;2.83;;
21060;SDS011;10689;50.836;3.266;2023-03-19T11:03:38;3.40;;;2.70;;
21060;SDS011;10689;50.836;3.266;2023-03-19T11:06:17;3.67;;;2.90;;
21060;SDS011;10689;50.836;3.266;2023-03-19T11:08:55;8.43;;;4.80;;
21060;SDS011;10689;50.836;3.266;2023-03-19T11:11:32;5.80;;;2.15;;
21060;SDS011;10689;50.836;3.266;2023-03-19T11:14:11;3.83;;;1.93;;
21060;SDS011;10689;50.836;3.266;2023-03-19T11:16:54;3.53;;;2.30;;
21060;SDS011;10689;50.836;3.266;2023-03-19T11:19:24;3.13;;;2.00;;
21060;SDS011;10689;50.836;3.266;2023-03-19T11:22:01;3.87;;;1.97;;
21060;SDS011;10689;50.836;3.266;2023-03-19T11:24:49;2.20;;;1.83;;
21060;SDS011;10689;50.836;3.266;2023-03-19T11:27:18;2.70;;;1.90;;
21060;SDS011;10689;50.836;3.266;2023-03-19T11:30:00;2.77;;;2.10;;
21060;SDS011;10689;50.836;3.266;2023-03-19T11:35:50;7.50;;;3.70;;
21060;SDS011;10689;50.836;3.266;2023-03-19T11:38:39;5.97;;;4.60;;
21060;SDS011;10689;50.836;3.266;2023-03-19T11:43:58;5.40;;;2.53;;
21060;SDS011;10689;50.836;3.266;2023-03-19T11:52:03;4.23;;;3.43;;
21060;SDS011;10689;50.836;3.266;2023-03-19T11:55:10;10.00;;;5.20;;
21060;SDS011;10689;50.836;3.266;2023-03-19T11:57:55;11.47;;;5.10;;
21060;SDS011;10689;50.836;3.266;2023-03-19T12:00:45;10.13;;;4.23;;
21060;SDS011;10689;50.836;3.266;2023-03-19T12:08:54;7.77;;;3.10;;
21060;SDS011;10689;50.836;3.266;2023-03-19T12:11:44;8.90;;;3.67;;
21060;SDS011;10689;50.836;3.266;2023-03-19T12:14:48;6.57;;;4.70;;
21060;SDS011;10689;50.836;3.266;2023-03-19T12:17:28;7.00;;;3.23;;
21060;SDS011;10689;50.836;3.266;2023-03-19T12:31:07;7.25;;;5.47;;
21060;SDS011;10689;50.836;3.266;2023-03-19T12:36:38;6.07;;;3.63;;
21060;SDS011;10689;50.836;3.266;2023-03-19T12:39:11;7.77;;;3.53;;
21060;SDS011;10689;50.836;3.266;2023-03-19T12:41:42;3.40;;;2.70;;
21060;SDS011;10689;50.836;3.266;2023-03-19T12:44:21;3.27;;;2.17;;
21060;SDS011;10689;50.836;3.266;2023-03-19T12:49:53;7.23;;;3.30;;
21060;SDS011;10689;50.836;3.266;2023-03-19T12:57:48;5.67;;;3.03;;
21060;SDS011;10689;50.836;3.266;2023-03-19T13:11:41;2.58;;;2.22;;
21060;SDS011;10689;50.836;3.266;2023-03-19T13:17:00;3.27;;;2.30;;
21060;SDS011;10689;50.836;3.266;2023-03-19T13:19:43;2.37;;;2.10;;
21060;SDS011;10689;50.836;3.266;2023-03-19T13:22:13;5.67;;;2.47;;
21060;SDS011;10689;50.836;3.266;2023-03-19T13:24:43;6.00;;;2.70;;
21060;SDS011;10689;50.836;3.266;2023-03-19T13:27:14;2.50;;;2.00;;
21060;SDS011;10689;50.836;3.266;2023-03-19T13:29:59;5.53;;;2.50;;
21060;SDS011;10689;50.836;3.266;2023-03-19T13:38:16;2.73;;;1.93;;
21060;SDS011;10689;50.836;3.266;2023-03-19T13:40:44;2.70;;;2.17;;
21060;SDS011;10689;50.836;3.266;2023-03-19T13:45:53;5.25;;;2.55;;
21060;SDS011;10689;50.836;3.266;2023-03-19T13:59:32;4.20;;;1.97;;
21060;SDS011;10689;50.836;3.266;2023-03-19T14:07:37;4.85;;;2.63;;
21060;SDS011;10689;50.836;3.266;2023-03-19T14:13:07;2.97;;;1.92;;
21060;SDS011;10689;50.836;3.266;2023-03-19T14:15:47;3.28;;;2.00;;
21060;SDS011;10689;50.836;3.266;2023-03-19T14:18:23;2.75;;;2.03;;
21060;SDS011;10689;50.836;3.266;2023-03-19T14:20:56;3.30;;;2.33;;
21060;SDS011;10689;50.836;3.266;2023-03-19T14:23:28;2.88;;;1.65;;
21060;SDS011;10689;50.836;3.266;2023-03-19T14:31:58;5.20;;;3.25;;
21060;SDS011;10689;50.836;3.266;2023-03-19T14:34:38;7.07;;;2.72;;
21060;SDS011;10689;50.836;3.266;2023-03-19T14:39:51;8.23;;;2.38;;
21060;SDS011;10689;50.836;3.266;2023-03-19T14:42:41;3.60;;;2.17;;
21060;SDS011;10689;50.836;3.266;2023-03-19T14:45:20;7.35;;;2.00;;
21060;SDS011;10689;50.836;3.266;2023-03-19T14:48:19;6.13;;;2.97;;
21060;SDS011;10689;50.836;3.266;2023-03-19T14:53:50;3.53;;;2.22;;
21060;SDS011;10689;50.836;3.266;2023-03-19T14:56:21;2.90;;;2.30;;
21060;SDS011;10689;50.836;3.266;2023-03-19T14:58:52;3.43;;;2.00;;
21060;SDS011;10689;50.836;3.266;2023-03-19T15:01:19;3.85;;;1.58;;
21060;SDS011;10689;50.836;3.266;2023-03-19T15:03:51;2.15;;;1.27;;
21060;SDS011;10689;50.836;3.266;2023-03-19T15:06:21;4.55;;;1.15;;
21060;SDS011;10689;50.836;3.266;2023-03-19T15:08:47;4.80;;;2.17;;
21060;SDS011;10689;50.836;3.266;2023-03-19T15:19:32;2.78;;;1.90;;
21060;SDS011;10689;50.836;3.266;2023-03-19T15:22:14;4.15;;;1.65;;
21060;SDS011;10689;50.836;3.266;2023-03-19T15:24:52;2.13;;;1.30;;
21060;SDS011;10689;50.836;3.266;2023-03-19T15:29:51;3.38;;;1.70;;
21060;SDS011;10689;50.836;3.266;2023-03-19T15:38:18;2.20;;;1.00;;
21060;SDS011;10689;50.836;3.266;2023-03-19T15:40:55;2.10;;;1.10;;
21060;SDS011;10689;50.836;3.266;2023-03-19T15:43:32;1.83;;;1.20;;
21060;SDS011;10689;50.836;3.266;2023-03-19T15:46:00;1.50;;;1.10;;
21060;SDS011;10689;50.836;3.266;2023-03-19T15:48:44;1.52;;;1.10;;
21060;SDS011;10689;50.836;3.266;2023-03-19T15:51:18;1.38;;;1.10;;
21060;SDS011;10689;50.836;3.266;2023-03-19T15:53:48;2.03;;;0.98;;
21060;SDS011;10689;50.836;3.266;2023-03-19T15:56:17;3.53;;;1.25;;
21060;SDS011;10689;50.836;3.266;2023-03-19T15:58:47;0.98;;;0.98;;
21060;SDS011;10689;50.836;3.266;2023-03-19T16:01:15;8.48;;;1.17;;
21060;SDS011;10689;50.836;3.266;2023-03-19T16:07:15;3.15;;;1.52;;
21060;SDS011;10689;50.836;3.266;2023-03-19T16:09:54;1.98;;;1.70;;
21060;SDS011;10689;50.836;3.266;2023-03-19T16:20:43;2.55;;;1.63;;
21060;SDS011;10689;50.836;3.266;2023-03-19T16:23:27;2.97;;;2.28;;
21060;SDS011;10689;50.836;3.266;2023-03-19T16:26:04;4.63;;;3.05;;
21060;SDS011;10689;50.836;3.266;2023-03-19T16:28:40;2.22;;;2.00;;
21060;SDS011;10689;50.836;3.266;2023-03-19T16:31:20;2.00;;;1.88;;
21060;SDS011;10689;50.836;3.266;2023-03-19T16:33:48;2.53;;;1.98;;
21060;SDS011;10689;50.836;3.266;2023-03-19T16:36:16;2.63;;;1.80;;
21060;SDS011;10689;50.836;3.266;2023-03-19T16:38:56;6.17;;;1.77;;
21060;SDS011;10689;50.836;3.266;2023-03-19T16:41:38;6.13;;;1.97;;
21060;SDS011;10689;50.836;3.266;2023-03-19T16:44:26;4.40;;;1.75;;
21060;SDS011;10689;50.836;3.266;2023-03-19T16:46:55;4.47;;;2.10;;
21060;SDS011;10689;50.836;3.266;2023-03-19T16:49:24;2.70;;;1.80;;
21060;SDS011;10689;50.836;3.266;2023-03-19T16:52:20;4.13;;;1.88;;
21060;SDS011;10689;50.836;3.266;2023-03-19T16:54:48;5.30;;;2.40;;
21060;SDS011;10689;50.836;3.266;2023-03-19T16:57:18;2.90;;;2.25;;
21060;SDS011;10689;50.836;3.266;2023-03-19T16:59:52;2.65;;;1.98;;
21060;SDS011;10689;50.836;3.266;2023-03-19T17:02:25;2.70;;;2.05;;
21060;SDS011;10689;50.836;3.266;2023-03-19T17:04:57;6.50;;;2.88;;
21060;SDS011;10689;50.836;3.266;2023-03-19T17:07:31;4.97;;;3.15;;
21060;SDS011;10689;50.836;3.266;2023-03-19T17:10:16;4.47;;;2.17;;
21060;SDS011;10689;50.836;3.266;2023-03-19T17:12:44;6.32;;;3.10;;
21060;SDS011;10689;50.836;3.266;2023-03-19T17:18:09;3.25;;;2.00;;
21060;SDS011;10689;50.836;3.266;2023-03-19T17:20:49;3.65;;;1.65;;
21060;SDS011;10689;50.836;3.266;2023-03-19T17:23:27;1.47;;;1.37;;
21060;SDS011;10689;50.836;3.266;2023-03-19T17:25:54;2.58;;;1.80;;
21060;SDS011;10689;50.836;3.266;2023-03-19T17:28:24;3.80;;;1.63;;
21060;SDS011;10689;50.836;3.266;2023-03-19T17:30:56;2.33;;;1.73;;
21060;SDS011;10689;50.836;3.266;2023-03-19T17:33:23;2.20;;;1.37;;
21060;SDS011;10689;50.836;3.266;2023-03-19T17:35:59;3.50;;;2.23;;
21060;SDS011;10689;50.836;3.266;2023-03-19T17:38:32;5.82;;;1.90;;
21060;SDS011;10689;50.836;3.266;2023-03-19T17:40:58;2.40;;;1.55;;